Time;durP1;ratioP1;P1;durP2;ratioP2;P2;SDS_P1;SDS_P2;PMS_P1;PMS_P2;Temp;Humidity;BMP_temperature;BMP_pressure;BME280_temperature;BME280_humidity;BME280_pressure;Samples;Min_cycle;Max_cycle;Signal;HPM_P1;HPM_P2
2021/03/19 00:01:28;;;;;;;0.73;0.43;;;3.30;98.50;;;;;;5091169;28;20404;-54
2021/03/19 00:03:54;;;;;;;1.15;0.40;;;3.30;98.60;;;;;;5090993;28;20383;-53
2021/03/19 00:06:21;;;;;;;1.35;0.60;;;3.30;98.80;;;;;;5089604;28;20408;-53
2021/03/19 00:08:47;;;;;;;1.30;0.65;;;3.30;99.00;;;;;;5091157;28;20388;-52
2021/03/19 00:11:13;;;;;;;2.50;0.70;;;3.30;99.20;;;;;;5090401;28;20408;-51
2021/03/19 00:13:40;;;;;;;3.65;0.55;;;3.30;99.30;;;;;;5091165;28;20384;-53
2021/03/19 00:16:07;;;;;;;2.03;0.70;;;3.30;99.20;;;;;;5089778;28;20753;-50
2021/03/19 00:18:35;;;;;;;1.77;0.70;;;3.20;99.20;;;;;;5090405;28;20395;-52
2021/03/19 00:21:01;;;;;;;5.00;0.90;;;3.20;99.50;;;;;;5090372;28;20411;-52
2021/03/19 00:23:27;;;;;;;1.90;0.80;;;3.10;99.80;;;;;;5090705;28;20964;-50
2021/03/19 00:25:54;;;;;;;1.23;0.70;;;3.10;99.80;;;;;;5090033;28;20450;-51
2021/03/19 00:28:20;;;;;;;1.70;0.60;;;3.10;99.90;;;;;;5090349;28;20451;-50
2021/03/19 00:30:46;;;;;;;1.98;0.70;;;3.10;99.90;;;;;;5089927;28;20423;-51
2021/03/19 00:33:13;;;;;;;2.70;0.60;;;3.20;99.90;;;;;;5090493;28;20409;-52
2021/03/19 00:35:40;;;;;;;2.67;0.70;;;3.20;99.90;;;;;;5090864;28;20381;-49
2021/03/19 00:38:06;;;;;;;1.75;0.70;;;3.10;99.90;;;;;;5089576;28;20390;-53
2021/03/19 00:40:33;;;;;;;2.25;0.82;;;3.10;99.90;;;;;;5090690;28;20408;-52
2021/03/19 00:42:59;;;;;;;1.80;0.70;;;3.10;99.90;;;;;;5090076;28;20411;-51
2021/03/19 00:45:26;;;;;;;1.40;0.70;;;3.10;99.90;;;;;;5086935;28;20408;-53
2021/03/19 00:47:53;;;;;;;2.03;0.80;;;3.10;99.90;;;;;;5090251;28;20769;-51
2021/03/19 00:50:28;;;;;;;1.77;0.73;;;3.10;99.90;;;;;;5090669;28;20740;-52
2021/03/19 00:52:54;;;;;;;1.55;0.70;;;3.10;99.90;;;;;;5090264;28;20388;-52
2021/03/19 00:55:20;;;;;;;2.95;0.88;;;3.10;99.90;;;;;;5089022;28;20388;-54
2021/03/19 00:57:47;;;;;;;3.67;0.63;;;3.10;99.90;;;;;;5089933;28;20392;-53
2021/03/19 01:00:13;;;;;;;2.15;0.70;;;3.00;99.90;;;;;;5090438;28;20416;-51
2021/03/19 01:02:40;;;;;;;4.20;0.70;;;3.10;99.90;;;;;;5089470;28;20849;-54
2021/03/19 01:05:11;;;;;;;3.58;0.80;;;3.00;99.90;;;;;;5088852;28;20947;-52
2021/03/19 01:07:38;;;;;;;3.58;0.82;;;2.90;99.90;;;;;;5089545;28;20380;-49
2021/03/19 01:10:09;;;;;;;2.25;0.63;;;2.90;99.90;;;;;;5089645;28;20392;-48
2021/03/19 01:12:35;;;;;;;1.67;0.80;;;2.80;99.90;;;;;;5089983;28;20384;-51
2021/03/19 01:15:03;;;;;;;1.85;0.70;;;2.70;99.90;;;;;;5089252;28;20915;-48
2021/03/19 01:17:29;;;;;;;2.63;0.80;;;2.70;99.90;;;;;;5090099;28;20389;-51
2021/03/19 01:19:55;;;;;;;2.13;0.90;;;2.60;99.90;;;;;;5089810;28;20481;-51
2021/03/19 01:22:22;;;;;;;2.17;0.90;;;2.60;99.90;;;;;;5089072;28;20383;-50
2021/03/19 01:24:48;;;;;;;2.03;0.77;;;2.60;99.90;;;;;;5089572;28;20380;-49
2021/03/19 01:27:14;;;;;;;2.20;0.60;;;2.60;99.90;;;;;;5089965;28;20408;-48
2021/03/19 01:29:40;;;;;;;2.60;0.70;;;2.50;99.90;;;;;;5089777;28;20435;-51
2021/03/19 01:32:07;;;;;;;2.35;0.70;;;2.50;99.90;;;;;;5089316;28;20395;-48
2021/03/19 01:34:33;;;;;;;2.58;0.80;;;2.50;99.90;;;;;;5090356;28;20418;-49
2021/03/19 01:36:59;;;;;;;1.23;0.60;;;2.40;99.90;;;;;;5089185;28;20377;-47
2021/03/19 01:39:25;;;;;;;1.95;0.70;;;2.50;99.90;;;;;;5089932;28;20385;-48
2021/03/19 01:41:53;;;;;;;3.55;0.70;;;2.40;99.90;;;;;;5088442;28;20408;-49
2021/03/19 01:44:25;;;;;;;2.60;0.80;;;2.40;99.90;;;;;;5068804;28;20459;-48
2021/03/19 01:47:28;;;;;;;2.63;0.70;;;2.40;99.90;;;;;;5087776;28;20400;-50
2021/03/19 01:50:32;;;;;;;2.53;0.70;;;2.50;99.90;;;;;;5091745;28;20391;-51
2021/03/19 01:53:36;;;;;;;2.03;0.70;;;2.40;99.90;;;;;;5091921;28;20404;-48
2021/03/19 01:56:40;;;;;;;1.77;0.63;;;2.50;99.90;;;;;;5093009;28;20752;-48
2021/03/19 01:59:43;;;;;;;2.28;0.70;;;2.50;99.90;;;;;;5089280;28;20867;-48
2021/03/19 02:02:47;;;;;;;1.38;0.70;;;2.50;99.90;;;;;;5093387;28;20415;-48
2021/03/19 02:05:50;;;;;;;1.80;0.90;;;2.50;99.90;;;;;;5087249;28;20391;-51
2021/03/19 02:08:54;;;;;;;2.10;0.70;;;2.50;99.90;;;;;;5093195;28;20638;-49
2021/03/19 02:11:57;;;;;;;1.67;0.80;;;2.50;99.90;;;;;;5092288;28;20895;-48
2021/03/19 02:15:01;;;;;;;2.17;0.90;;;2.50;99.90;;;;;;5092368;28;20395;-48
2021/03/19 02:18:24;;;;;;;2.45;0.75;;;2.50;99.90;;;;;;5091254;28;20388;-47
2021/03/19 02:21:27;;;;;;;2.10;0.70;;;2.50;99.90;;;;;;5009681;28;20415;-49
2021/03/19 02:24:31;;;;;;;1.75;0.77;;;2.40;99.90;;;;;;5009773;28;20399;-48
2021/03/19 02:27:34;;;;;;;1.10;0.60;;;2.40;99.90;;;;;;5091113;28;20423;-49
2021/03/19 02:30:37;;;;;;;1.30;0.60;;;2.40;99.90;;;;;;5091299;28;20453;-50
2021/03/19 02:33:04;;;;;;;0.80;0.40;;;2.30;99.90;;;;;;5091695;28;20380;-51
2021/03/19 02:35:30;;;;;;;1.05;0.40;;;2.20;99.90;;;;;;5090297;28;20383;-50
2021/03/19 02:37:56;;;;;;;0.45;0.30;;;2.20;99.80;;;;;;5074306;28;20380;-48
2021/03/19 02:40:23;;;;;;;3.73;0.40;;;2.10;99.30;;;;;;5092560;28;20412;-48
2021/03/19 02:42:50;;;;;;;1.05;0.40;;;2.00;99.20;;;;;;5093068;28;20780;-49
2021/03/19 02:45:19;;;;;;;0.80;0.30;;;2.00;99.20;;;;;;5073277;28;20748;-48
2021/03/19 02:47:45;;;;;;;0.85;0.22;;;1.90;99.40;;;;;;5092114;28;20387;-47
2021/03/19 02:50:11;;;;;;;1.10;0.40;;;1.80;99.80;;;;;;5091488;28;20400;-48
2021/03/19 02:52:39;;;;;;;1.13;0.40;;;1.80;99.50;;;;;;5091818;28;20376;-48
2021/03/19 02:55:07;;;;;;;0.98;0.50;;;1.80;99.80;;;;;;5092154;28;20389;-48
2021/03/19 02:57:33;;;;;;;0.60;0.30;;;1.80;99.90;;;;;;5073922;28;20764;-48
2021/03/19 02:59:59;;;;;;;0.60;0.30;;;1.80;99.40;;;;;;5091380;28;20411;-48
2021/03/19 03:02:25;;;;;;;1.27;0.27;;;1.80;98.70;;;;;;5091516;28;20407;-48
2021/03/19 03:04:51;;;;;;;0.60;0.25;;;1.80;98.30;;;;;;5091809;28;20394;-47
2021/03/19 03:07:25;;;;;;;1.13;0.40;;;1.70;97.70;;;;;;5092450;28;20391;-47
2021/03/19 03:09:51;;;;;;;1.20;0.30;;;1.60;97.80;;;;;;5091454;28;20441;-49
2021/03/19 03:12:18;;;;;;;1.05;0.38;;;1.60;97.60;;;;;;5092044;28;20384;-48
2021/03/19 03:14:44;;;;;;;1.45;0.30;;;1.50;97.90;;;;;;5090874;28;20379;-49
2021/03/19 03:17:10;;;;;;;0.70;0.25;;;1.60;98.10;;;;;;5090841;28;20380;-48
2021/03/19 03:19:36;;;;;;;1.67;0.30;;;1.60;98.40;;;;;;5091827;28;20392;-48
2021/03/19 03:22:03;;;;;;;0.80;0.40;;;1.60;98.60;;;;;;5091306;28;20404;-47
2021/03/19 03:24:29;;;;;;;0.63;0.40;;;1.50;98.60;;;;;;5091793;28;20415;-48
2021/03/19 03:26:56;;;;;;;0.82;0.40;;;1.50;98.80;;;;;;5091128;28;20404;-48
2021/03/19 03:29:23;;;;;;;0.60;0.30;;;1.50;98.90;;;;;;5091679;28;20399;-48
2021/03/19 03:31:50;;;;;;;0.90;0.50;;;1.40;99.20;;;;;;5056890;28;20396;-51
2021/03/19 03:34:16;;;;;;;2.72;0.60;;;1.40;99.20;;;;;;5072939;28;20392;-47
2021/03/19 03:36:42;;;;;;;1.45;0.50;;;1.40;99.50;;;;;;5091824;28;20384;-48
2021/03/19 03:39:11;;;;;;;0.70;0.40;;;1.40;99.60;;;;;;5091336;28;20383;-50
2021/03/19 03:41:37;;;;;;;2.42;0.52;;;1.30;99.80;;;;;;5089844;28;20407;-49
2021/03/19 03:44:04;;;;;;;1.10;0.57;;;1.30;99.80;;;;;;5091183;28;20385;-46
2021/03/19 03:46:30;;;;;;;2.75;0.70;;;1.20;99.70;;;;;;5072560;28;20407;-49
2021/03/19 03:48:57;;;;;;;2.47;0.52;;;1.10;99.90;;;;;;5089595;28;20391;-48
2021/03/19 03:51:24;;;;;;;1.08;0.65;;;1.00;99.90;;;;;;5091530;28;20796;-50
2021/03/19 03:53:51;;;;;;;1.70;0.60;;;1.00;99.90;;;;;;5090556;28;20469;-47
2021/03/19 03:56:17;;;;;;;1.30;0.60;;;0.90;99.60;;;;;;5090147;28;20387;-48
2021/03/19 03:58:44;;;;;;;1.83;0.80;;;0.80;99.70;;;;;;5091630;28;20868;-47
2021/03/19 04:01:10;;;;;;;3.33;0.75;;;0.60;98.10;;;;;;5071765;28;20423;-48
2021/03/19 04:03:36;;;;;;;2.50;0.90;;;0.50;97.00;;;;;;5091241;28;20376;-47
2021/03/19 04:06:03;;;;;;;2.20;0.90;;;0.40;97.10;;;;;;5090866;28;20389;-47
2021/03/19 04:08:29;;;;;;;2.60;0.90;;;0.30;97.30;;;;;;5091212;28;20384;-48
2021/03/19 04:10:57;;;;;;;4.90;0.80;;;0.30;96.30;;;;;;5090870;28;20856;-48
2021/03/19 04:13:24;;;;;;;2.55;1.00;;;0.20;96.30;;;;;;5089953;28;20389;-50
2021/03/19 04:15:51;;;;;;;3.67;0.97;;;0.10;96.20;;;;;;5072296;28;20419;-50
2021/03/19 04:18:17;;;;;;;5.97;0.98;;;0.00;96.20;;;;;;5089571;28;20388;-48
2021/03/19 04:20:44;;;;;;;1.77;0.93;;;0.00;96.60;;;;;;5072002;28;20401;-48
2021/03/19 04:23:11;;;;;;;2.50;1.00;;;-0.10;96.90;;;;;;5089895;28;20391;-51
2021/03/19 04:25:37;;;;;;;2.97;0.90;;;-0.20;95.90;;;;;;5071469;28;20480;-47
2021/03/19 04:28:08;;;;;;;2.67;0.90;;;-0.20;94.30;;;;;;5090118;28;20396;-48
2021/03/19 04:30:40;;;;;;;4.32;1.02;;;-0.20;93.30;;;;;;5089869;28;20384;-49
2021/03/19 04:33:07;;;;;;;3.33;0.93;;;-0.30;94.10;;;;;;5089652;28;20730;-48
2021/03/19 04:35:34;;;;;;;2.50;0.98;;;-0.40;92.50;;;;;;5090545;28;20381;-49
2021/03/19 04:38:04;;;;;;;4.15;1.05;;;-0.40;92.00;;;;;;5072823;28;20381;-48
2021/03/19 04:40:30;;;;;;;2.42;0.90;;;-0.50;92.20;;;;;;5054122;28;20394;-48
2021/03/19 04:42:57;;;;;;;2.28;0.80;;;-0.50;91.30;;;;;;5090844;28;20389;-47
2021/03/19 04:45:23;;;;;;;2.83;0.90;;;-0.50;90.90;;;;;;5055023;28;20741;-50
2021/03/19 04:47:52;;;;;;;2.42;1.00;;;-0.60;89.80;;;;;;5089542;28;20405;-47
2021/03/19 04:50:19;;;;;;;2.33;0.90;;;-0.60;89.70;;;;;;5090298;28;20728;-48
2021/03/19 04:52:45;;;;;;;2.30;0.90;;;-0.60;89.00;;;;;;5071983;28;20396;-50
2021/03/19 04:55:11;;;;;;;2.08;0.80;;;-0.70;88.50;;;;;;5090101;28;20464;-50
2021/03/19 04:57:38;;;;;;;2.67;0.97;;;-0.70;88.50;;;;;;5090963;28;20400;-50
2021/03/19 05:00:06;;;;;;;2.00;0.93;;;-0.80;89.20;;;;;;5090417;28;20428;-50
2021/03/19 05:02:43;;;;;;;2.95;1.13;;;-0.80;88.90;;;;;;5070028;28;20408;-50
2021/03/19 05:05:14;;;;;;;4.88;1.23;;;-0.80;89.50;;;;;;5087496;28;20365;-49
2021/03/19 05:07:41;;;;;;;5.25;0.90;;;-0.90;90.00;;;;;;5089220;28;20399;-49
2021/03/19 05:10:08;;;;;;;7.55;0.90;;;-0.90;90.10;;;;;;5086958;28;20376;-49
2021/03/19 05:12:34;;;;;;;3.67;1.00;;;-0.90;89.50;;;;;;5089948;28;20364;-49
2021/03/19 05:15:00;;;;;;;3.40;0.90;;;-1.00;89.10;;;;;;5071162;28;20404;-50
2021/03/19 05:17:30;;;;;;;3.70;1.10;;;-1.00;90.00;;;;;;5087743;28;20384;-50
2021/03/19 05:19:57;;;;;;;4.70;1.00;;;-1.00;89.60;;;;;;5090445;28;20772;-49
2021/03/19 05:22:24;;;;;;;1.80;0.90;;;-1.00;88.50;;;;;;5090168;28;20404;-49
2021/03/19 05:24:50;;;;;;;2.80;1.00;;;-1.10;89.10;;;;;;5088931;28;20380;-49
2021/03/19 05:27:16;;;;;;;3.97;1.08;;;-1.10;87.80;;;;;;5093953;28;20873;-50
2021/03/19 05:29:43;;;;;;;2.90;0.70;;;-1.10;86.70;;;;;;5093630;28;20393;-48
2021/03/19 05:32:09;;;;;;;3.65;0.90;;;-1.00;86.10;;;;;;5092953;28;20957;-51
2021/03/19 05:34:35;;;;;;;4.47;0.80;;;-1.10;87.20;;;;;;5094154;28;20867;-50
2021/03/19 05:37:01;;;;;;;6.28;0.93;;;-1.10;88.40;;;;;;5093650;28;20385;-52
2021/03/19 05:39:27;;;;;;;3.50;1.10;;;-1.10;87.40;;;;;;5093729;28;20744;-49
2021/03/19 05:41:54;;;;;;;8.15;1.10;;;-1.10;87.30;;;;;;5093573;28;20903;-52
2021/03/19 05:44:24;;;;;;;4.55;0.90;;;-1.10;87.30;;;;;;5093649;28;20840;-51
2021/03/19 05:46:52;;;;;;;5.05;0.90;;;-1.10;85.90;;;;;;5092383;28;20836;-51
2021/03/19 05:49:27;;;;;;;5.50;1.08;;;-1.10;85.20;;;;;;5073474;28;20384;-50
2021/03/19 05:51:58;;;;;;;3.83;0.93;;;-1.10;84.50;;;;;;5091740;28;20741;-50
2021/03/19 05:54:25;;;;;;;4.03;0.97;;;-1.10;83.80;;;;;;5085939;28;20377;-49
2021/03/19 05:57:00;;;;;;;3.67;0.90;;;-1.10;83.00;;;;;;5092294;28;20465;-49
2021/03/19 05:59:39;;;;;;;3.45;0.93;;;-1.00;84.90;;;;;;5091836;28;20396;-49
2021/03/19 06:02:35;;;;;;;3.35;0.70;;;-1.00;85.00;;;;;;5072408;28;20415;-49
2021/03/19 06:05:03;;;;;;;4.80;0.98;;;-1.00;84.10;;;;;;5089280;28;20384;-50
2021/03/19 06:07:47;;;;;;;4.53;0.80;;;-1.00;83.30;;;;;;5091127;28;20388;-48
2021/03/19 06:10:26;;;;;;;6.03;1.08;;;-0.90;82.70;;;;;;5090226;28;20385;-49
2021/03/19 06:12:55;;;;;;;5.30;0.70;;;-0.90;81.10;;;;;;5090493;28;20387;-52
2021/03/19 06:15:32;;;;;;;1.57;0.70;;;-0.90;81.50;;;;;;5088592;28;20876;-48
2021/03/19 06:18:00;;;;;;;5.38;0.90;;;-0.80;82.50;;;;;;5072443;28;20491;-52
2021/03/19 06:20:26;;;;;;;8.93;1.03;;;-0.80;82.00;;;;;;5090558;28;20411;-50
2021/03/19 06:23:01;;;;;;;4.50;1.00;;;-0.70;81.10;;;;;;5089633;28;20412;-48
2021/03/19 06:25:42;;;;;;;3.38;0.90;;;-0.70;80.60;;;;;;5088807;28;20439;-48
2021/03/19 06:28:25;;;;;;;3.78;0.82;;;-0.70;80.80;;;;;;5072049;28;20392;-50
2021/03/19 06:30:52;;;;;;;3.38;0.70;;;-0.70;81.30;;;;;;5069964;28;20404;-48
2021/03/19 06:33:25;;;;;;;5.20;1.00;;;-0.70;80.60;;;;;;5089945;28;20372;-49
2021/03/19 06:36:17;;;;;;;4.10;0.90;;;-0.60;79.80;;;;;;5071760;28;20379;-48
2021/03/19 06:38:50;;;;;;;3.22;0.75;;;-0.60;79.20;;;;;;5090501;28;20376;-51
2021/03/19 06:41:19;;;;;;;3.55;1.00;;;-0.50;79.80;;;;;;5089858;28;20411;-46
2021/03/19 06:43:45;;;;;;;4.65;0.80;;;-0.40;79.40;;;;;;5090125;28;20368;-46
2021/03/19 06:46:39;;;;;;;5.82;1.10;;;-0.40;79.30;;;;;;5089441;28;20419;-46
2021/03/19 06:49:06;;;;;;;6.32;0.80;;;-0.30;77.40;;;;;;5071875;28;20394;-49
2021/03/19 06:51:40;;;;;;;3.77;0.70;;;-0.30;78.40;;;;;;5091213;28;20860;-49
2021/03/19 06:54:22;;;;;;;5.90;0.90;;;-0.20;77.90;;;;;;5089253;28;20385;-49
2021/03/19 06:57:05;;;;;;;36.90;2.47;;;-0.10;76.40;;;;;;5089713;28;20383;-49
2021/03/19 06:59:44;;;;;;;2.67;0.53;;;-0.10;76.40;;;;;;5091327;28;20420;-48
2021/03/19 07:02:32;;;;;;;7.25;1.27;;;-0.10;76.40;;;;;;5073390;28;20412;-50
2021/03/19 07:05:23;;;;;;;5.03;0.90;;;0.00;76.60;;;;;;5091039;28;20711;-48
2021/03/19 07:07:56;;;;;;;3.47;0.90;;;0.10;75.20;;;;;;5090226;28;20395;-47
2021/03/19 07:10:46;;;;;;;3.70;0.75;;;0.20;72.80;;;;;;5067369;28;21061;-47
2021/03/19 07:13:53;;;;;;;4.22;0.90;;;0.20;73.60;;;;;;5071688;28;20392;-48
2021/03/19 07:16:26;;;;;;;2.88;0.82;;;0.30;74.50;;;;;;5030686;28;20400;-47
2021/03/19 07:19:37;;;;;;;8.93;0.98;;;0.40;73.30;;;;;;5072487;28;20721;-48
2021/03/19 07:22:45;;;;;;;5.57;0.80;;;0.50;71.10;;;;;;5086446;28;20415;-47
2021/03/19 07:25:35;;;;;;;4.60;0.70;;;0.60;70.20;;;;;;5072391;28;20372;-49
2021/03/19 07:28:19;;;;;;;4.32;1.00;;;0.70;72.00;;;;;;5056095;28;20490;-48
2021/03/19 07:30:57;;;;;;;7.97;1.03;;;0.70;70.00;;;;;;5091617;28;20427;-47
2021/03/19 07:33:26;;;;;;;5.25;0.73;;;0.80;71.20;;;;;;5072891;28;20856;-47
2021/03/19 07:36:14;;;;;;;9.73;1.17;;;0.80;70.20;;;;;;5071942;28;20395;-50
2021/03/19 07:39:02;;;;;;;8.77;0.90;;;1.00;74.00;;;;;;5090110;28;20860;-47
2021/03/19 07:41:50;;;;;;;10.35;1.00;;;1.10;71.60;;;;;;5071922;28;20400;-50
2021/03/19 07:44:39;;;;;;;8.98;1.02;;;1.20;70.10;;;;;;5089432;28;20372;-47
2021/03/19 07:47:21;;;;;;;5.50;1.02;;;1.30;68.60;;;;;;5089156;28;20376;-48
2021/03/19 07:49:55;;;;;;;6.95;0.75;;;1.40;70.20;;;;;;5091542;28;20867;-48
2021/03/19 07:52:35;;;;;;;5.38;0.93;;;1.60;69.80;;;;;;5073785;28;20372;-47
2021/03/19 07:55:04;;;;;;;5.35;0.82;;;1.90;69.30;;;;;;5072566;28;20384;-49
2021/03/19 07:57:33;;;;;;;3.53;0.63;;;2.10;68.60;;;;;;5090126;28;20397;-48
2021/03/19 08:00:11;;;;;;;3.17;0.65;;;2.50;68.10;;;;;;5072416;28;20392;-49
2021/03/19 08:02:46;;;;;;;4.93;1.00;;;2.90;64.30;;;;;;5070450;28;20396;-50
2021/03/19 08:05:26;;;;;;;2.58;0.80;;;3.20;62.50;;;;;;5090478;28;20384;-51
2021/03/19 08:08:10;;;;;;;3.07;0.80;;;3.80;59.20;;;;;;5089538;28;20388;-52
2021/03/19 08:10:39;;;;;;;4.05;0.90;;;3.90;58.80;;;;;;5089573;28;20392;-47
2021/03/19 08:13:28;;;;;;;4.40;0.90;;;4.40;56.90;;;;;;5089809;28;20888;-48
2021/03/19 08:16:14;;;;;;;4.60;1.07;;;4.80;57.30;;;;;;5072268;28;20386;-49
2021/03/19 08:18:53;;;;;;;5.80;0.82;;;4.50;55.00;;;;;;5074115;28;20379;-49
2021/03/19 08:21:37;;;;;;;5.20;0.90;;;4.70;56.70;;;;;;5054147;28;20396;-48
2021/03/19 08:24:13;;;;;;;22.70;2.70;;;4.80;57.10;;;;;;5087790;28;20861;-50
2021/03/19 08:27:12;;;;;;;4.68;0.80;;;5.10;54.40;;;;;;5070266;28;20422;-50
2021/03/19 08:30:04;;;;;;;3.80;0.80;;;5.60;53.40;;;;;;5081692;28;20407;-49
2021/03/19 08:32:36;;;;;;;3.65;0.80;;;5.10;53.30;;;;;;5078809;28;20407;-52
2021/03/19 08:35:05;;;;;;;6.63;1.10;;;5.60;53.50;;;;;;5073506;28;20725;-52
2021/03/19 08:37:48;;;;;;;3.95;0.90;;;6.30;50.40;;;;;;5090084;28;20388;-53
2021/03/19 08:40:43;;;;;;;5.13;1.00;;;6.40;47.70;;;;;;5057705;28;20380;-50
2021/03/19 08:43:26;;;;;;;8.85;0.82;;;6.80;47.50;;;;;;5069108;28;20412;-52
2021/03/19 08:46:00;;;;;;;23.55;1.77;;;7.10;49.00;;;;;;5070102;28;20893;-49
2021/03/19 08:48:26;;;;;;;;;;;6.50;47.40;;;;;;5073808;28;20376;-51
2021/03/19 08:50:52;;;;;;;;;;;7.20;49.50;;;;;;5090361;28;19989;-53
2021/03/19 08:53:23;;;;;;;2.90;0.90;;;7.30;46.10;;;;;;5090298;28;20631;-52
2021/03/19 08:55:50;;;;;;;;;;;7.30;46.60;;;;;;5072791;28;20396;-49
2021/03/19 08:58:27;;;;;;;;;;;7.40;46.50;;;;;;5091798;28;20349;-51
2021/03/19 09:00:54;;;;;;;;;;;7.10;45.50;;;;;;5096853;28;19908;-52
2021/03/19 09:03:39;;;;;;;;;;;7.70;44.60;;;;;;5097917;28;19919;-51
2021/03/19 09:06:05;;;;;;;;;;;7.60;44.40;;;;;;5098576;28;19912;-50
2021/03/19 09:08:43;;;;;;;;;;;8.00;43.20;;;;;;5098358;28;19915;-51
2021/03/19 09:11:15;;;;;;;;;;;7.50;44.00;;;;;;5100115;28;20356;-51
2021/03/19 09:14:00;;;;;;;;;;;8.50;43.80;;;;;;5085987;28;19931;-51
2021/03/19 09:16:44;;;;;;;;;;;9.10;40.00;;;;;;5096857;28;19908;-52
2021/03/19 09:19:28;;;;;;;;;;;8.80;40.50;;;;;;5097121;28;19923;-50
2021/03/19 09:22:14;;;;;;;;;;;9.40;38.40;;;;;;5095108;28;19916;-52
2021/03/19 09:24:40;;;;;;;;;;;9.40;39.20;;;;;;5080226;28;19916;-51
2021/03/19 09:27:32;;;;;;;;;;;9.20;36.20;;;;;;5097772;28;19937;-52
2021/03/19 09:30:17;;;;;;;;;;;8.70;39.00;;;;;;5094305;28;19916;-53
2021/03/19 09:32:44;;;;;;;;;;;8.40;40.00;;;;;;5096799;28;19931;-52
2021/03/19 09:35:13;;;;;;;;;;;9.30;36.50;;;;;;5092159;28;19916;-51
2021/03/19 09:37:39;;;;;;;;;;;9.50;36.10;;;;;;5094789;28;20280;-51
2021/03/19 09:40:08;;;;;;;;;;;9.00;35.10;;;;;;5097983;28;19908;-51
2021/03/19 09:42:44;;;;;;;;;;;9.10;36.10;;;;;;5096986;28;19916;-51
2021/03/19 09:45:10;;;;;;;;;;;9.30;39.60;;;;;;5096274;28;19931;-48
2021/03/19 09:47:36;;;;;;;;;;;9.60;36.50;;;;;;5097001;28;19919;-49
2021/03/19 09:50:23;;;;;;;;;;;9.80;34.70;;;;;;5097736;28;19917;-52
2021/03/19 09:52:55;;;;;;;;;;;10.30;34.10;;;;;;5096257;28;19908;-52
2021/03/19 09:55:22;;;;;;;;;;;10.50;31.70;;;;;;5096919;28;19939;-49
2021/03/19 09:57:48;;;;;;;;;;;10.70;31.80;;;;;;5096419;28;20375;-50
2021/03/19 10:00:15;;;;;;;;;;;10.40;33.10;;;;;;5079364;28;19959;-52
2021/03/19 10:02:42;;;;;;;;;;;11.00;34.80;;;;;;5095198;28;19919;-51
2021/03/19 10:05:13;;;;;;;;;;;10.70;32.50;;;;;;5079981;28;19931;-49
2021/03/19 10:07:54;;;;;;;11.52;1.40;;;11.20;33.50;;;;;;5089477;28;20897;-55
2021/03/19 10:10:34;;;;;;;4.18;0.93;;;11.50;32.80;;;;;;5094683;28;20392;-48
2021/03/19 10:13:19;;;;;;;5.37;1.00;;;12.00;31.00;;;;;;5075366;28;20775;-49
2021/03/19 10:15:46;;;;;;;4.93;1.00;;;12.00;30.40;;;;;;5089793;28;20884;-49
2021/03/19 10:18:37;;;;;;;11.93;1.30;;;12.40;29.00;;;;;;5092876;28;20373;-49
2021/03/19 10:21:12;;;;;;;6.70;1.08;;;12.90;29.60;;;;;;5091933;28;20880;-50
2021/03/19 10:23:42;;;;;;;3.17;1.02;;;12.00;29.20;;;;;;5091077;28;20869;-48
2021/03/19 10:26:20;;;;;;;4.13;0.90;;;12.10;30.90;;;;;;5092218;28;20395;-49
2021/03/19 10:29:05;;;;;;;2.85;0.82;;;12.30;29.30;;;;;;5074195;28;20956;-49
2021/03/19 10:31:37;;;;;;;6.78;0.88;;;12.00;28.50;;;;;;5089551;28;20383;-51
2021/03/19 10:34:05;;;;;;;4.82;0.70;;;11.80;28.80;;;;;;5061517;28;20395;-54
2021/03/19 10:36:49;;;;;;;2.83;0.90;;;11.90;29.60;;;;;;5066419;28;20401;-52
2021/03/19 10:39:23;;;;;;;4.50;0.80;;;12.00;30.20;;;;;;5092627;28;20380;-50
2021/03/19 10:42:10;;;;;;;3.15;0.68;;;11.50;28.60;;;;;;5070077;28;20399;-54
2021/03/19 10:45:00;;;;;;;3.40;0.70;;;11.70;28.50;;;;;;5091362;28;20388;-50
2021/03/19 10:47:35;;;;;;;2.63;0.80;;;11.70;28.00;;;;;;5076874;28;20385;-52
2021/03/19 10:50:11;;;;;;;68.47;13.70;;;11.70;27.40;;;;;;5074708;28;20784;-52
2021/03/19 10:53:17;;;;;;;2.70;0.70;;;12.50;27.60;;;;;;5092736;28;20436;-48
2021/03/19 10:55:47;;;;;;;3.35;0.80;;;11.70;26.30;;;;;;5065098;28;20403;-49
2021/03/19 10:58:22;;;;;;;2.72;0.80;;;12.40;26.90;;;;;;5072549;28;20388;-51
2021/03/19 11:00:49;;;;;;;3.03;0.80;;;12.60;26.60;;;;;;5087583;28;20392;-49
2021/03/19 11:03:31;;;;;;;2.63;0.90;;;13.00;26.30;;;;;;5089583;28;20412;-48
2021/03/19 11:06:08;;;;;;;2.73;0.70;;;13.30;26.10;;;;;;5091308;28;20411;-49
2021/03/19 11:08:35;;;;;;;2.08;0.70;;;13.30;25.60;;;;;;5090928;28;20446;-51
2021/03/19 11:11:01;;;;;;;3.47;0.88;;;13.00;24.80;;;;;;5090461;28;20395;-48
2021/03/19 11:13:31;;;;;;;4.97;0.93;;;12.90;23.30;;;;;;5091042;28;20372;-48
2021/03/19 11:15:59;;;;;;;4.85;0.90;;;13.50;24.40;;;;;;5091278;28;20385;-50
2021/03/19 11:18:38;;;;;;;4.30;0.68;;;13.80;24.10;;;;;;5091817;28;20400;-49
2021/03/19 11:21:08;;;;;;;2.80;0.77;;;14.30;22.40;;;;;;5075323;28;20732;-48
2021/03/19 11:23:40;;;;;;;3.93;0.90;;;14.20;21.90;;;;;;5088467;28;20411;-48
2021/03/19 11:26:27;;;;;;;13.95;1.40;;;13.80;23.10;;;;;;5093008;28;20385;-52
2021/03/19 11:29:18;;;;;;;3.65;0.90;;;13.70;24.70;;;;;;5092642;28;20392;-49
2021/03/19 11:32:03;;;;;;;3.22;0.80;;;13.80;23.80;;;;;;5091967;28;20392;-49
2021/03/19 11:34:56;;;;;;;3.38;0.60;;;14.00;23.40;;;;;;5089481;28;20395;-50
2021/03/19 11:37:23;;;;;;;6.67;0.83;;;14.00;24.40;;;;;;5070751;28;20384;-49
2021/03/19 11:39:49;;;;;;;3.80;0.70;;;14.20;22.90;;;;;;5090967;28;20423;-49
2021/03/19 11:42:17;;;;;;;5.50;0.70;;;14.20;23.00;;;;;;5072596;28;20427;-49
2021/03/19 11:44:46;;;;;;;2.80;0.80;;;13.80;22.30;;;;;;5089918;28;20392;-48
2021/03/19 11:47:19;;;;;;;3.17;0.68;;;13.60;23.00;;;;;;5089302;28;20400;-50
2021/03/19 11:49:46;;;;;;;2.72;0.70;;;14.00;24.20;;;;;;5068323;28;20391;-48
2021/03/19 11:52:13;;;;;;;3.25;0.90;;;13.30;22.70;;;;;;5090794;28;20396;-48
2021/03/19 11:54:40;;;;;;;2.40;0.70;;;13.90;23.70;;;;;;5091258;28;20953;-49
2021/03/19 11:57:07;;;;;;;4.57;1.00;;;15.00;23.80;;;;;;5090695;28;20396;-52
2021/03/19 11:59:33;;;;;;;3.83;0.70;;;16.10;21.30;;;;;;5090974;28;20387;-51
2021/03/19 12:02:02;;;;;;;1.63;0.60;;;14.90;21.30;;;;;;5089841;28;20856;-50
2021/03/19 12:04:28;;;;;;;1.58;0.57;;;14.90;21.10;;;;;;5091467;28;20396;-54
2021/03/19 12:06:54;;;;;;;2.05;0.50;;;15.10;21.30;;;;;;5091513;28;20368;-53
2021/03/19 12:09:21;;;;;;;2.55;0.70;;;14.50;19.80;;;;;;5090649;28;20420;-48
2021/03/19 12:11:47;;;;;;;2.37;0.60;;;13.80;20.30;;;;;;5089708;28;20387;-47
2021/03/19 12:14:18;;;;;;;2.40;0.70;;;14.00;21.90;;;;;;5091420;28;20384;-47
2021/03/19 12:16:44;;;;;;;1.95;0.70;;;13.70;22.60;;;;;;5090000;28;20381;-47
2021/03/19 12:19:10;;;;;;;2.60;0.57;;;13.20;23.60;;;;;;5091600;28;20384;-48
2021/03/19 12:21:37;;;;;;;4.05;0.88;;;13.50;22.70;;;;;;5091436;28;20380;-50
2021/03/19 12:24:03;;;;;;;4.47;0.60;;;14.50;21.60;;;;;;5072739;28;20893;-50
2021/03/19 12:26:29;;;;;;;3.63;0.80;;;13.90;20.50;;;;;;5088575;28;20374;-48
2021/03/19 12:28:55;;;;;;;5.05;0.77;;;13.90;23.40;;;;;;5089954;28;20400;-47
2021/03/19 12:31:22;;;;;;;4.25;0.75;;;14.20;23.40;;;;;;5090452;28;20377;-50
2021/03/19 12:33:48;;;;;;;4.20;0.90;;;14.40;23.10;;;;;;5088001;28;20389;-51
2021/03/19 12:36:14;;;;;;;1.90;0.60;;;15.70;21.10;;;;;;5071948;28;20418;-52
2021/03/19 12:38:40;;;;;;;3.90;0.70;;;15.60;20.10;;;;;;5089841;28;20397;-51
2021/03/19 12:41:06;;;;;;;7.45;0.82;;;15.60;20.80;;;;;;5091261;28;20709;-50
2021/03/19 12:43:32;;;;;;;4.82;0.82;;;15.30;20.10;;;;;;5090424;28;20892;-48
2021/03/19 12:45:59;;;;;;;5.67;0.60;;;15.20;19.70;;;;;;5090106;28;20392;-51
2021/03/19 12:48:25;;;;;;;3.15;0.57;;;15.20;20.30;;;;;;5090858;28;20380;-50
2021/03/19 12:50:51;;;;;;;1.13;0.55;;;15.40;19.60;;;;;;5056062;28;20374;-48
2021/03/19 12:53:19;;;;;;;3.35;0.70;;;15.80;18.50;;;;;;5081349;28;20808;-50
2021/03/19 12:55:45;;;;;;;3.40;0.70;;;15.20;19.40;;;;;;5090903;28;20368;-47
2021/03/19 12:58:12;;;;;;;4.78;0.68;;;14.50;19.90;;;;;;5066843;28;20414;-47
2021/03/19 13:00:38;;;;;;;1.80;0.75;;;14.20;20.00;;;;;;5091226;28;20387;-47
2021/03/19 13:03:05;;;;;;;2.22;0.73;;;14.50;20.00;;;;;;5091315;28;20887;-51
2021/03/19 13:05:31;;;;;;;1.92;0.70;;;15.00;19.60;;;;;;5090835;28;20391;-51
2021/03/19 13:07:58;;;;;;;2.03;0.60;;;14.00;18.30;;;;;;5090783;28;20373;-49
2021/03/19 13:10:25;;;;;;;2.70;0.63;;;13.50;20.40;;;;;;5089850;28;20403;-51
2021/03/19 13:12:52;;;;;;;1.52;0.50;;;13.70;20.60;;;;;;5090767;28;20380;-53
2021/03/19 13:15:20;;;;;;;2.72;0.70;;;14.60;19.20;;;;;;5089294;28;20876;-51
2021/03/19 13:17:46;;;;;;;3.20;0.60;;;14.90;19.10;;;;;;5055844;28;20906;-52
2021/03/19 13:20:13;;;;;;;2.58;0.63;;;15.40;18.60;;;;;;5083836;28;20388;-50
2021/03/19 13:22:39;;;;;;;5.28;0.60;;;16.40;16.70;;;;;;5090081;28;20412;-52
2021/03/19 13:25:07;;;;;;;2.47;0.90;;;17.10;16.90;;;;;;5071834;28;20392;-51
2021/03/19 13:27:33;;;;;;;15.52;1.00;;;17.60;15.40;;;;;;5089898;28;20399;-51
2021/03/19 13:30:00;;;;;;;3.20;0.80;;;15.80;15.10;;;;;;5089691;28;20399;-48
2021/03/19 13:32:26;;;;;;;2.85;0.70;;;14.70;17.20;;;;;;5090221;28;20388;-50